JST221 YSSY-NZQN
Flight info
| Callsign | JST221 |
|---|---|
| Flight time | 2h 37m |
| Altitude | 37000 |
| Route | TESAT Y84 TONIM P766 ADKOS |
| Aircraft | A320/M-SDE3FGHIRWYZ/LB1 |
Departure
| Time | 2026-04-25 02:08 |
|---|---|
| Airport | Sydney Kingsford Smith International Airport (YSSY) |
Arrival
| Time | 2026-04-25 04:46 |
|---|---|
| Airport | Queenstown Airport (NZQN) |
| Time | Latitude | Longitude | Altitude | Speed | Heading |
|---|---|---|---|---|---|
| 2026-04-25 01:22 | -33.93959 | 151.16415 | 30 ft | 0 kts | 123° |
| 2026-04-25 01:50 | -33.93948 | 151.16396 | 30 ft | 3 kts | 120° |
| 2026-04-25 01:51 | -33.93938 | 151.16372 | 30 ft | 3 kts | 110° |
| 2026-04-25 01:51 | -33.93932 | 151.16351 | 30 ft | 3 kts | 124° |
| 2026-04-25 01:51 | -33.93917 | 151.16336 | 30 ft | 3 kts | 168° |
| 2026-04-25 01:51 | -33.93900 | 151.16333 | 30 ft | 0 kts | 173° |
| 2026-04-25 01:52 | -33.93920 | 151.16337 | 30 ft | 3 kts | 179° |
| 2026-04-25 01:52 | -33.93934 | 151.16324 | 30 ft | 1 kts | 224° |
| 2026-04-25 01:52 | -33.93950 | 151.16309 | 30 ft | 3 kts | 215° |
| 2026-04-25 01:52 | -33.93970 | 151.16300 | 30 ft | 3 kts | 193° |
| 2026-04-25 01:53 | -33.93974 | 151.16299 | 30 ft | 0 kts | 192° |
| 2026-04-25 01:55 | -33.93975 | 151.16298 | 30 ft | 0 kts | 192° |
| 2026-04-25 01:55 | -33.93984 | 151.16296 | 30 ft | 3 kts | 192° |
| 2026-04-25 01:55 | -33.94017 | 151.16287 | 30 ft | 6 kts | 193° |
| 2026-04-25 01:56 | -33.94066 | 151.16276 | 30 ft | 8 kts | 186° |
| 2026-04-25 01:56 | -33.94128 | 151.16287 | 30 ft | 10 kts | 164° |
| 2026-04-25 01:56 | -33.94180 | 151.16339 | 30 ft | 11 kts | 92° |
| 2026-04-25 01:56 | -33.94156 | 151.16438 | 30 ft | 13 kts | 74° |
| 2026-04-25 01:57 | -33.94097 | 151.16688 | 30 ft | 18 kts | 74° |
| 2026-04-25 01:57 | -33.94062 | 151.16840 | 30 ft | 20 kts | 74° |
| 2026-04-25 01:57 | -33.94027 | 151.16991 | 30 ft | 18 kts | 73° |
| 2026-04-25 01:58 | -33.93997 | 151.17115 | 30 ft | 15 kts | 74° |
| 2026-04-25 01:58 | -33.93969 | 151.17232 | 29 ft | 12 kts | 74° |
| 2026-04-25 01:58 | -33.93954 | 151.17294 | 28 ft | 2 kts | 74° |
| 2026-04-25 01:58 | -33.93947 | 151.17322 | 27 ft | 6 kts | 74° |
| 2026-04-25 01:59 | -33.93929 | 151.17395 | 26 ft | 12 kts | 72° |
| 2026-04-25 01:59 | -33.93903 | 151.17509 | 28 ft | 15 kts | 74° |
| 2026-04-25 01:59 | -33.93873 | 151.17633 | 29 ft | 16 kts | 73° |
| 2026-04-25 01:59 | -33.93867 | 151.17763 | 30 ft | 16 kts | 133° |
| 2026-04-25 02:00 | -33.93982 | 151.17801 | 29 ft | 19 kts | 167° |
| 2026-04-25 02:00 | -33.94115 | 151.17835 | 29 ft | 20 kts | 168° |
| 2026-04-25 02:00 | -33.94260 | 151.17872 | 30 ft | 22 kts | 168° |
| 2026-04-25 02:00 | -33.94418 | 151.17913 | 30 ft | 24 kts | 171° |
| 2026-04-25 02:01 | -33.94541 | 151.17878 | 30 ft | 16 kts | 173° |
| 2026-04-25 02:01 | -33.94657 | 151.17916 | 30 ft | 18 kts | 167° |
| 2026-04-25 02:01 | -33.94787 | 151.17949 | 30 ft | 20 kts | 167° |
| 2026-04-25 02:01 | -33.94920 | 151.17984 | 30 ft | 17 kts | 168° |
| 2026-04-25 02:02 | -33.95025 | 151.18011 | 30 ft | 12 kts | 167° |
| 2026-04-25 02:02 | -33.95095 | 151.18063 | 30 ft | 13 kts | 111° |
| 2026-04-25 02:02 | -33.95087 | 151.18177 | 30 ft | 15 kts | 78° |
| 2026-04-25 02:02 | -33.95063 | 151.18308 | 30 ft | 17 kts | 77° |
| 2026-04-25 02:03 | -33.95043 | 151.18454 | 30 ft | 18 kts | 95° |
| 2026-04-25 02:03 | -33.95130 | 151.18558 | 30 ft | 19 kts | 139° |
| 2026-04-25 02:03 | -33.95235 | 151.18672 | 30 ft | 21 kts | 144° |
| 2026-04-25 02:03 | -33.95378 | 151.18735 | 30 ft | 21 kts | 168° |
| 2026-04-25 02:04 | -33.95515 | 151.18770 | 30 ft | 20 kts | 167° |
| 2026-04-25 02:04 | -33.95655 | 151.18807 | 30 ft | 22 kts | 168° |
| 2026-04-25 02:04 | -33.95803 | 151.18846 | 30 ft | 18 kts | 167° |
| 2026-04-25 02:04 | -33.95930 | 151.18878 | 30 ft | 19 kts | 169° |
| 2026-04-25 02:05 | -33.96066 | 151.18913 | 30 ft | 21 kts | 168° |
| 2026-04-25 02:05 | -33.96214 | 151.18952 | 30 ft | 19 kts | 167° |
| 2026-04-25 02:05 | -33.96339 | 151.18985 | 30 ft | 20 kts | 168° |
| 2026-04-25 02:05 | -33.96480 | 151.19021 | 30 ft | 22 kts | 168° |
| 2026-04-25 02:06 | -33.96581 | 151.19047 | 30 ft | 23 kts | 168° |
| 2026-04-25 02:06 | -33.96737 | 151.19072 | 30 ft | 21 kts | 186° |
| 2026-04-25 02:06 | -33.96902 | 151.19086 | 30 ft | 19 kts | 169° |
| 2026-04-25 02:06 | -33.96985 | 151.19107 | 30 ft | 17 kts | 168° |
| 2026-04-25 02:07 | -33.97078 | 151.19133 | 30 ft | 12 kts | 161° |
| 2026-04-25 02:07 | -33.97123 | 151.19217 | 30 ft | 15 kts | 79° |
| 2026-04-25 02:07 | -33.97078 | 151.19343 | 29 ft | 20 kts | 39° |
| 2026-04-25 02:07 | -33.96813 | 151.19309 | 23 ft | 72 kts | 347° |
| 2026-04-25 02:08 | -33.96121 | 151.19127 | 28 ft | 129 kts | 347° |
| 2026-04-25 02:08 | -33.95097 | 151.18864 | 175 ft | 160 kts | 347° |
| 2026-04-25 02:08 | -33.94013 | 151.18664 | 889 ft | 159 kts | 4° |
| 2026-04-25 02:08 | -33.93007 | 151.19161 | 1538 ft | 161 kts | 45° |
| 2026-04-25 02:09 | -33.92513 | 151.20359 | 2132 ft | 166 kts | 82° |
| 2026-04-25 02:09 | -33.92745 | 151.21779 | 2497 ft | 185 kts | 117° |
| 2026-04-25 02:09 | -33.93390 | 151.23151 | 3028 ft | 190 kts | 117° |
| 2026-04-25 02:09 | -33.93827 | 151.24647 | 3595 ft | 190 kts | 92° |
| 2026-04-25 02:10 | -33.93808 | 151.26213 | 4208 ft | 190 kts | 86° |
| 2026-04-25 02:10 | -33.93760 | 151.27823 | 4820 ft | 191 kts | 86° |
| 2026-04-25 02:10 | -33.93710 | 151.29493 | 5034 ft | 214 kts | 86° |
| 2026-04-25 02:10 | -33.93653 | 151.31364 | 5303 ft | 234 kts | 86° |
| 2026-04-25 02:11 | -33.93592 | 151.33458 | 5608 ft | 259 kts | 87° |
| 2026-04-25 02:11 | -33.93530 | 151.35674 | 6261 ft | 270 kts | 87° |
| 2026-04-25 02:11 | -33.93466 | 151.37931 | 7060 ft | 274 kts | 88° |
| 2026-04-25 02:11 | -33.93400 | 151.40244 | 7851 ft | 278 kts | 88° |
| 2026-04-25 02:12 | -33.93331 | 151.42577 | 8641 ft | 281 kts | 88° |
| 2026-04-25 02:12 | -33.93263 | 151.44942 | 9454 ft | 284 kts | 89° |
| 2026-04-25 02:12 | -33.93193 | 151.47333 | 10250 ft | 288 kts | 89° |
| 2026-04-25 02:12 | -33.93121 | 151.49787 | 10719 ft | 303 kts | 89° |
| 2026-04-25 02:13 | -33.93281 | 151.52396 | 10885 ft | 324 kts | 106° |
| 2026-04-25 02:13 | -33.94325 | 151.54863 | 11258 ft | 336 kts | 130° |
| 2026-04-25 02:13 | -33.96143 | 151.56654 | 11860 ft | 341 kts | 148° |
| 2026-04-25 02:13 | -33.98179 | 151.58156 | 12531 ft | 344 kts | 148° |
| 2026-04-25 02:14 | -34.00216 | 151.59638 | 13180 ft | 348 kts | 148° |
| 2026-04-25 02:14 | -34.02301 | 151.61148 | 13806 ft | 352 kts | 149° |
| 2026-04-25 02:14 | -34.04408 | 151.62671 | 14427 ft | 355 kts | 148° |
| 2026-04-25 02:14 | -34.06538 | 151.64218 | 15019 ft | 358 kts | 148° |
| 2026-04-25 02:15 | -34.08681 | 151.65781 | 15613 ft | 360 kts | 148° |
| 2026-04-25 02:15 | -34.10830 | 151.67354 | 16188 ft | 362 kts | 148° |
| 2026-04-25 02:15 | -34.12994 | 151.68937 | 16752 ft | 365 kts | 148° |
| 2026-04-25 02:15 | -34.15176 | 151.70534 | 17316 ft | 368 kts | 148° |
| 2026-04-25 02:16 | -34.17371 | 151.72143 | 17880 ft | 370 kts | 148° |
| 2026-04-25 02:16 | -34.19583 | 151.73765 | 18447 ft | 373 kts | 148° |
| 2026-04-25 02:16 | -34.21789 | 151.75386 | 18971 ft | 376 kts | 148° |
| 2026-04-25 02:16 | -34.24030 | 151.77037 | 19485 ft | 379 kts | 148° |
| 2026-04-25 02:17 | -34.26287 | 151.78698 | 20008 ft | 381 kts | 148° |
| 2026-04-25 02:17 | -34.28559 | 151.80371 | 20530 ft | 383 kts | 148° |
| 2026-04-25 02:17 | -34.30848 | 151.82056 | 21040 ft | 385 kts | 148° |
| 2026-04-25 02:17 | -34.33145 | 151.83745 | 21542 ft | 387 kts | 148° |
| 2026-04-25 02:18 | -34.35452 | 151.85444 | 22029 ft | 389 kts | 148° |
| 2026-04-25 02:18 | -34.37778 | 151.87155 | 22504 ft | 391 kts | 148° |
| 2026-04-25 02:18 | -34.39962 | 151.89049 | 22956 ft | 393 kts | 139° |
| 2026-04-25 02:18 | -34.41871 | 151.91421 | 23410 ft | 395 kts | 129° |
| 2026-04-25 02:19 | -34.43621 | 151.93997 | 23880 ft | 397 kts | 129° |
| 2026-04-25 02:19 | -34.45386 | 151.96580 | 24284 ft | 399 kts | 129° |
| 2026-04-25 02:19 | -34.47170 | 151.99181 | 24677 ft | 400 kts | 130° |
| 2026-04-25 02:19 | -34.48955 | 152.01781 | 25060 ft | 402 kts | 130° |
| 2026-04-25 02:20 | -34.50750 | 152.04399 | 25445 ft | 404 kts | 130° |
| 2026-04-25 02:20 | -34.52547 | 152.07025 | 25805 ft | 406 kts | 130° |
| 2026-04-25 02:20 | -34.54356 | 152.09669 | 26167 ft | 408 kts | 130° |
| 2026-04-25 02:20 | -34.56173 | 152.12326 | 26523 ft | 410 kts | 130° |
| 2026-04-25 02:21 | -34.57993 | 152.14991 | 26886 ft | 411 kts | 130° |
| 2026-04-25 02:21 | -34.59824 | 152.17677 | 27250 ft | 413 kts | 130° |
| 2026-04-25 02:21 | -34.61658 | 152.20372 | 27576 ft | 416 kts | 130° |
| 2026-04-25 02:21 | -34.63478 | 152.23053 | 27916 ft | 418 kts | 130° |
| 2026-04-25 02:22 | -34.65334 | 152.25783 | 28268 ft | 420 kts | 130° |
| 2026-04-25 02:22 | -34.67199 | 152.28528 | 28403 ft | 421 kts | 130° |
| 2026-04-25 02:22 | -34.69059 | 152.31268 | 28438 ft | 420 kts | 130° |
| 2026-04-25 02:23 | -34.72784 | 152.36753 | 28437 ft | 420 kts | 130° |
| 2026-04-25 02:23 | -34.76504 | 152.42243 | 28437 ft | 420 kts | 130° |
| 2026-04-25 02:24 | -34.80218 | 152.47736 | 28436 ft | 420 kts | 130° |
| 2026-04-25 02:24 | -34.83931 | 152.53235 | 28437 ft | 420 kts | 130° |
| 2026-04-25 02:24 | -34.85797 | 152.55999 | 28633 ft | 423 kts | 130° |
| 2026-04-25 02:25 | -34.87651 | 152.58745 | 29023 ft | 424 kts | 129° |
| 2026-04-25 02:25 | -34.89527 | 152.61528 | 29386 ft | 426 kts | 130° |
| 2026-04-25 02:25 | -34.91412 | 152.64331 | 29730 ft | 428 kts | 129° |
| 2026-04-25 02:25 | -34.93298 | 152.67137 | 30217 ft | 427 kts | 130° |
| 2026-04-25 02:26 | -34.95173 | 152.69930 | 30669 ft | 425 kts | 130° |
| 2026-04-25 02:26 | -34.97050 | 152.72726 | 31085 ft | 424 kts | 130° |
| 2026-04-25 02:26 | -34.98922 | 152.75514 | 31468 ft | 424 kts | 130° |
| 2026-04-25 02:26 | -35.00764 | 152.78259 | 31848 ft | 424 kts | 130° |
| 2026-04-25 02:27 | -35.02628 | 152.81047 | 32232 ft | 423 kts | 130° |
| 2026-04-25 02:27 | -35.04488 | 152.83834 | 32640 ft | 423 kts | 130° |
| 2026-04-25 02:27 | -35.06340 | 152.86613 | 33058 ft | 422 kts | 130° |
| 2026-04-25 02:27 | -35.08188 | 152.89386 | 33465 ft | 421 kts | 130° |
| 2026-04-25 02:28 | -35.10035 | 152.92152 | 33868 ft | 420 kts | 130° |
| 2026-04-25 02:28 | -35.11881 | 152.94913 | 34286 ft | 419 kts | 130° |
| 2026-04-25 02:28 | -35.13721 | 152.97672 | 34655 ft | 418 kts | 130° |
| 2026-04-25 02:28 | -35.15557 | 153.00427 | 34994 ft | 418 kts | 130° |
| 2026-04-25 02:29 | -35.17387 | 153.03176 | 35321 ft | 417 kts | 130° |
| 2026-04-25 02:29 | -35.19214 | 153.05924 | 35646 ft | 416 kts | 130° |
| 2026-04-25 02:29 | -35.21036 | 153.08666 | 35954 ft | 415 kts | 130° |
| 2026-04-25 02:29 | -35.22855 | 153.11407 | 36269 ft | 414 kts | 131° |
| 2026-04-25 02:30 | -35.24670 | 153.14142 | 36595 ft | 413 kts | 130° |
| 2026-04-25 02:30 | -35.26474 | 153.16868 | 36932 ft | 411 kts | 130° |
| 2026-04-25 02:30 | -35.28250 | 153.19553 | 37246 ft | 410 kts | 131° |
| 2026-04-25 02:30 | -35.30046 | 153.22262 | 37411 ft | 410 kts | 131° |
| 2026-04-25 02:31 | -35.31856 | 153.24994 | 37442 ft | 415 kts | 131° |
| 2026-04-25 02:31 | -35.35513 | 153.30528 | 37442 ft | 419 kts | 130° |
| 2026-04-25 02:32 | -35.39181 | 153.36100 | 37445 ft | 420 kts | 130° |
| 2026-04-25 02:32 | -35.42849 | 153.41673 | 37448 ft | 420 kts | 130° |
| 2026-04-25 02:33 | -35.46512 | 153.47242 | 37447 ft | 418 kts | 130° |
| 2026-04-25 02:33 | -35.50159 | 153.52814 | 37454 ft | 418 kts | 130° |
| 2026-04-25 02:34 | -35.53804 | 153.58385 | 37457 ft | 419 kts | 130° |
| 2026-04-25 02:34 | -35.57435 | 153.63938 | 37460 ft | 419 kts | 130° |
| 2026-04-25 02:35 | -35.61086 | 153.69521 | 37466 ft | 419 kts | 130° |
| 2026-04-25 02:35 | -35.64737 | 153.75103 | 37470 ft | 419 kts | 130° |
| 2026-04-25 02:36 | -35.68355 | 153.80658 | 37459 ft | 419 kts | 130° |
| 2026-04-25 02:36 | -35.71998 | 153.86265 | 37457 ft | 419 kts | 130° |
| 2026-04-25 02:37 | -35.75642 | 153.91892 | 37458 ft | 420 kts | 130° |
| 2026-04-25 02:37 | -35.79283 | 153.97515 | 37459 ft | 420 kts | 130° |
| 2026-04-25 02:38 | -35.82923 | 154.03157 | 37463 ft | 420 kts | 130° |
| 2026-04-25 02:38 | -35.86557 | 154.08794 | 37471 ft | 420 kts | 130° |
| 2026-04-25 02:39 | -35.90193 | 154.14418 | 37473 ft | 420 kts | 130° |
| 2026-04-25 02:39 | -35.93801 | 154.20028 | 37471 ft | 419 kts | 130° |
| 2026-04-25 02:40 | -36.00711 | 154.30781 | 37469 ft | 419 kts | 130° |
| 2026-04-25 02:41 | -36.04520 | 154.36230 | 37471 ft | 418 kts | 137° |
| 2026-04-25 02:41 | -36.08733 | 154.41202 | 37476 ft | 419 kts | 137° |
| 2026-04-25 02:42 | -36.12916 | 154.46162 | 37469 ft | 419 kts | 137° |
| 2026-04-25 02:42 | -36.17120 | 154.51155 | 37472 ft | 419 kts | 137° |
| 2026-04-25 02:43 | -36.21319 | 154.56161 | 37470 ft | 419 kts | 137° |
| 2026-04-25 02:43 | -36.25518 | 154.61176 | 37473 ft | 419 kts | 137° |
| 2026-04-25 02:44 | -36.29715 | 154.66189 | 37473 ft | 419 kts | 137° |
| 2026-04-25 02:44 | -36.33886 | 154.71160 | 37466 ft | 419 kts | 137° |
| 2026-04-25 02:45 | -36.38088 | 154.76189 | 37468 ft | 420 kts | 137° |
| 2026-04-25 02:45 | -36.42297 | 154.81229 | 37469 ft | 420 kts | 137° |
| 2026-04-25 02:46 | -36.46510 | 154.86279 | 37469 ft | 421 kts | 137° |
| 2026-04-25 02:46 | -36.50710 | 154.91341 | 37470 ft | 421 kts | 136° |
| 2026-04-25 02:47 | -36.54885 | 154.96380 | 37469 ft | 421 kts | 137° |
| 2026-04-25 02:47 | -36.59092 | 155.01462 | 37483 ft | 421 kts | 136° |
| 2026-04-25 02:48 | -36.63290 | 155.06539 | 37493 ft | 420 kts | 136° |
| 2026-04-25 02:48 | -36.67505 | 155.11624 | 37471 ft | 421 kts | 136° |
| 2026-04-25 02:49 | -36.71705 | 155.16721 | 37469 ft | 421 kts | 136° |
| 2026-04-25 02:49 | -36.75896 | 155.21820 | 37469 ft | 422 kts | 136° |
| 2026-04-25 02:50 | -36.80069 | 155.26898 | 37470 ft | 422 kts | 136° |
| 2026-04-25 02:50 | -36.84274 | 155.32019 | 37474 ft | 423 kts | 136° |
| 2026-04-25 02:51 | -36.88488 | 155.37171 | 37481 ft | 423 kts | 136° |
| 2026-04-25 02:51 | -36.92698 | 155.42312 | 37482 ft | 423 kts | 136° |
| 2026-04-25 02:52 | -36.96908 | 155.47466 | 37470 ft | 423 kts | 136° |
| 2026-04-25 02:52 | -37.01093 | 155.52603 | 37468 ft | 424 kts | 136° |
| 2026-04-25 02:53 | -37.05309 | 155.57778 | 37467 ft | 424 kts | 136° |
| 2026-04-25 02:53 | -37.09530 | 155.62959 | 37476 ft | 424 kts | 136° |
| 2026-04-25 02:54 | -37.13738 | 155.68159 | 37489 ft | 425 kts | 136° |
| 2026-04-25 02:54 | -37.17938 | 155.73356 | 37482 ft | 424 kts | 136° |
| 2026-04-25 02:55 | -37.22140 | 155.78549 | 37488 ft | 424 kts | 136° |
| 2026-04-25 02:55 | -37.26328 | 155.83723 | 37475 ft | 425 kts | 136° |
| 2026-04-25 02:56 | -37.30538 | 155.88953 | 37472 ft | 425 kts | 136° |
| 2026-04-25 02:56 | -37.34752 | 155.94192 | 37478 ft | 426 kts | 136° |
| 2026-04-25 02:57 | -37.38965 | 155.99433 | 37480 ft | 426 kts | 136° |
| 2026-04-25 02:57 | -37.43147 | 156.04656 | 37481 ft | 426 kts | 136° |
| 2026-04-25 02:58 | -37.47362 | 156.09911 | 37482 ft | 426 kts | 136° |
| 2026-04-25 02:58 | -37.51576 | 156.15177 | 37486 ft | 426 kts | 136° |
| 2026-04-25 02:59 | -37.55782 | 156.20451 | 37477 ft | 426 kts | 136° |
| 2026-04-25 02:59 | -37.59954 | 156.25703 | 37477 ft | 427 kts | 136° |
| 2026-04-25 03:00 | -37.64173 | 156.31008 | 37481 ft | 428 kts | 136° |
| 2026-04-25 03:00 | -37.68385 | 156.36316 | 37484 ft | 428 kts | 136° |
| 2026-04-25 03:01 | -37.72610 | 156.41633 | 37485 ft | 428 kts | 136° |
| 2026-04-25 03:01 | -37.76821 | 156.46953 | 37484 ft | 428 kts | 136° |
| 2026-04-25 03:02 | -37.80986 | 156.52252 | 37487 ft | 428 kts | 136° |
| 2026-04-25 03:02 | -37.85190 | 156.57590 | 37487 ft | 428 kts | 136° |
| 2026-04-25 03:03 | -37.89405 | 156.62933 | 37481 ft | 428 kts | 136° |
| 2026-04-25 03:03 | -37.93597 | 156.68252 | 37481 ft | 429 kts | 136° |
| 2026-04-25 03:04 | -37.97809 | 156.73613 | 37479 ft | 429 kts | 136° |
| 2026-04-25 03:04 | -38.02006 | 156.78985 | 37479 ft | 429 kts | 135° |
| 2026-04-25 03:05 | -38.08304 | 156.87050 | 37478 ft | 429 kts | 135° |
| 2026-04-25 03:05 | -38.12501 | 156.92431 | 37481 ft | 429 kts | 135° |
| 2026-04-25 03:06 | -38.16697 | 156.97819 | 37470 ft | 429 kts | 135° |
| 2026-04-25 03:06 | -38.20899 | 157.03224 | 37468 ft | 430 kts | 135° |
| 2026-04-25 03:07 | -38.25108 | 157.08652 | 37468 ft | 431 kts | 135° |
| 2026-04-25 03:07 | -38.29320 | 157.14088 | 37472 ft | 432 kts | 135° |
| 2026-04-25 03:08 | -38.33527 | 157.19550 | 37482 ft | 432 kts | 135° |
| 2026-04-25 03:08 | -38.37740 | 157.25015 | 37490 ft | 432 kts | 135° |
| 2026-04-25 03:09 | -38.41932 | 157.30455 | 37491 ft | 432 kts | 135° |
| 2026-04-25 03:09 | -38.46148 | 157.35926 | 37492 ft | 433 kts | 135° |
| 2026-04-25 03:10 | -38.50364 | 157.41418 | 37489 ft | 432 kts | 135° |
| 2026-04-25 03:10 | -38.54570 | 157.46908 | 37489 ft | 432 kts | 135° |
| 2026-04-25 03:11 | -38.58770 | 157.52405 | 37487 ft | 432 kts | 135° |
| 2026-04-25 03:11 | -38.62941 | 157.57863 | 37493 ft | 432 kts | 135° |
| 2026-04-25 03:12 | -38.67130 | 157.63365 | 37492 ft | 431 kts | 135° |
| 2026-04-25 03:12 | -38.71312 | 157.68873 | 37490 ft | 431 kts | 135° |
| 2026-04-25 03:13 | -38.75491 | 157.74392 | 37480 ft | 432 kts | 135° |
| 2026-04-25 03:13 | -38.79684 | 157.79920 | 37479 ft | 433 kts | 135° |
| 2026-04-25 03:14 | -38.83888 | 157.85463 | 37480 ft | 434 kts | 135° |
| 2026-04-25 03:14 | -38.88091 | 157.91024 | 37491 ft | 434 kts | 135° |
| 2026-04-25 03:15 | -38.92254 | 157.96554 | 37490 ft | 434 kts | 135° |
| 2026-04-25 03:15 | -38.96443 | 158.02135 | 37491 ft | 434 kts | 135° |
| 2026-04-25 03:16 | -39.00642 | 158.07717 | 37487 ft | 433 kts | 135° |
| 2026-04-25 03:16 | -39.04838 | 158.13303 | 37478 ft | 434 kts | 135° |
| 2026-04-25 03:17 | -39.09029 | 158.18904 | 37473 ft | 435 kts | 135° |
| 2026-04-25 03:17 | -39.13202 | 158.24504 | 37477 ft | 435 kts | 134° |
| 2026-04-25 03:18 | -39.17398 | 158.30141 | 37485 ft | 436 kts | 134° |
| 2026-04-25 03:18 | -39.21593 | 158.35784 | 37485 ft | 436 kts | 134° |
| 2026-04-25 03:19 | -39.25793 | 158.41437 | 37484 ft | 436 kts | 134° |
| 2026-04-25 03:19 | -39.29991 | 158.47087 | 37484 ft | 436 kts | 134° |
| 2026-04-25 03:20 | -39.34180 | 158.52750 | 37475 ft | 436 kts | 134° |
| 2026-04-25 03:20 | -39.38372 | 158.58433 | 37471 ft | 437 kts | 134° |
| 2026-04-25 03:21 | -39.41856 | 158.63163 | 37476 ft | 437 kts | 134° |
| 2026-04-25 03:21 | -39.46734 | 158.69799 | 37477 ft | 438 kts | 134° |
| 2026-04-25 03:22 | -39.50933 | 158.75518 | 37483 ft | 438 kts | 134° |
| 2026-04-25 03:22 | -39.54424 | 158.80269 | 37482 ft | 438 kts | 134° |
| 2026-04-25 03:23 | -39.58628 | 158.86000 | 37487 ft | 439 kts | 134° |
| 2026-04-25 03:23 | -39.62823 | 158.91753 | 37481 ft | 439 kts | 134° |
| 2026-04-25 03:24 | -39.67029 | 158.97530 | 37478 ft | 439 kts | 134° |
| 2026-04-25 03:24 | -39.71227 | 159.03295 | 37479 ft | 440 kts | 134° |
| 2026-04-25 03:25 | -39.75429 | 159.09074 | 37479 ft | 440 kts | 134° |
| 2026-04-25 03:25 | -39.79628 | 159.14875 | 37477 ft | 440 kts | 134° |
| 2026-04-25 03:26 | -39.83824 | 159.20673 | 37483 ft | 440 kts | 134° |
| 2026-04-25 03:26 | -39.87994 | 159.26443 | 37479 ft | 440 kts | 134° |
| 2026-04-25 03:27 | -39.92189 | 159.32254 | 37466 ft | 441 kts | 134° |
| 2026-04-25 03:27 | -39.96388 | 159.38102 | 37461 ft | 442 kts | 134° |
| 2026-04-25 03:28 | -40.00585 | 159.43946 | 37460 ft | 442 kts | 134° |
| 2026-04-25 03:28 | -40.04803 | 159.49811 | 37466 ft | 443 kts | 134° |
| 2026-04-25 03:29 | -40.09008 | 159.55689 | 37471 ft | 443 kts | 134° |
| 2026-04-25 03:29 | -40.13221 | 159.61601 | 37475 ft | 443 kts | 134° |
| 2026-04-25 03:30 | -40.17418 | 159.67497 | 37476 ft | 444 kts | 134° |
| 2026-04-25 03:30 | -40.21626 | 159.73415 | 37462 ft | 445 kts | 134° |
| 2026-04-25 03:31 | -40.25823 | 159.79315 | 37457 ft | 445 kts | 134° |
| 2026-04-25 03:31 | -40.30045 | 159.85263 | 37459 ft | 446 kts | 134° |
| 2026-04-25 03:32 | -40.38953 | 159.97904 | 37465 ft | 446 kts | 134° |
| 2026-04-25 03:33 | -40.43167 | 160.03889 | 37464 ft | 446 kts | 134° |
| 2026-04-25 03:33 | -40.47389 | 160.09894 | 37450 ft | 447 kts | 134° |
| 2026-04-25 03:34 | -40.51612 | 160.15912 | 37451 ft | 448 kts | 134° |
| 2026-04-25 03:34 | -40.55825 | 160.21935 | 37450 ft | 448 kts | 134° |
| 2026-04-25 03:35 | -40.60048 | 160.27983 | 37458 ft | 449 kts | 134° |
| 2026-04-25 03:35 | -40.64267 | 160.34044 | 37452 ft | 449 kts | 134° |
| 2026-04-25 03:36 | -40.68461 | 160.40075 | 37450 ft | 449 kts | 134° |
| 2026-04-25 03:36 | -40.72680 | 160.46148 | 37460 ft | 449 kts | 134° |
| 2026-04-25 03:37 | -40.76894 | 160.52234 | 37442 ft | 450 kts | 134° |
| 2026-04-25 03:37 | -40.80403 | 160.57304 | 37444 ft | 450 kts | 134° |
| 2026-04-25 03:38 | -40.84637 | 160.63425 | 37445 ft | 451 kts | 134° |
| 2026-04-25 03:38 | -40.88860 | 160.69559 | 37442 ft | 452 kts | 134° |
| 2026-04-25 03:39 | -40.93080 | 160.75715 | 37447 ft | 452 kts | 133° |
| 2026-04-25 03:39 | -40.97304 | 160.81888 | 37447 ft | 452 kts | 134° |
| 2026-04-25 03:40 | -41.01531 | 160.88062 | 37454 ft | 453 kts | 134° |
| 2026-04-25 03:40 | -41.05765 | 160.94246 | 37451 ft | 453 kts | 134° |
| 2026-04-25 03:41 | -41.10005 | 161.00452 | 37450 ft | 454 kts | 134° |
| 2026-04-25 03:41 | -41.14237 | 161.06672 | 37446 ft | 454 kts | 134° |
| 2026-04-25 03:42 | -41.18437 | 161.12862 | 37446 ft | 454 kts | 133° |
| 2026-04-25 03:42 | -41.22667 | 161.19104 | 37446 ft | 455 kts | 133° |
| 2026-04-25 03:43 | -41.26898 | 161.25369 | 37451 ft | 455 kts | 133° |
| 2026-04-25 03:43 | -41.31124 | 161.31642 | 37452 ft | 455 kts | 133° |
| 2026-04-25 03:44 | -41.35350 | 161.37912 | 37450 ft | 455 kts | 133° |
| 2026-04-25 03:44 | -41.39577 | 161.44187 | 37445 ft | 455 kts | 133° |
| 2026-04-25 03:45 | -41.43798 | 161.50473 | 37445 ft | 455 kts | 133° |
| 2026-04-25 03:45 | -41.48011 | 161.56776 | 37451 ft | 455 kts | 133° |
| 2026-04-25 03:46 | -41.52220 | 161.63079 | 37445 ft | 455 kts | 133° |
| 2026-04-25 03:46 | -41.56395 | 161.69359 | 37439 ft | 455 kts | 133° |
| 2026-04-25 03:47 | -41.60599 | 161.75687 | 37435 ft | 456 kts | 133° |
| 2026-04-25 03:47 | -41.64811 | 161.82032 | 37433 ft | 456 kts | 133° |
| 2026-04-25 03:48 | -41.69024 | 161.88395 | 37430 ft | 456 kts | 133° |
| 2026-04-25 03:48 | -41.73235 | 161.94759 | 37431 ft | 457 kts | 133° |
| 2026-04-25 03:49 | -41.77439 | 162.01140 | 37432 ft | 457 kts | 133° |
| 2026-04-25 03:49 | -41.81616 | 162.07507 | 37441 ft | 457 kts | 133° |
| 2026-04-25 03:50 | -41.85819 | 162.13911 | 37433 ft | 458 kts | 133° |
| 2026-04-25 03:50 | -41.90036 | 162.20336 | 37433 ft | 458 kts | 133° |
| 2026-04-25 03:51 | -41.94241 | 162.26769 | 37429 ft | 458 kts | 133° |
| 2026-04-25 03:51 | -41.98442 | 162.33231 | 37424 ft | 459 kts | 133° |
| 2026-04-25 03:52 | -42.02644 | 162.39687 | 37424 ft | 459 kts | 133° |
| 2026-04-25 03:52 | -42.06846 | 162.46152 | 37424 ft | 459 kts | 133° |
| 2026-04-25 03:53 | -42.11018 | 162.52587 | 37423 ft | 459 kts | 133° |
| 2026-04-25 03:53 | -42.15215 | 162.59089 | 37418 ft | 460 kts | 133° |
| 2026-04-25 03:54 | -42.19411 | 162.65604 | 37424 ft | 460 kts | 133° |
| 2026-04-25 03:54 | -42.23612 | 162.72129 | 37417 ft | 461 kts | 133° |
| 2026-04-25 03:55 | -42.27817 | 162.78672 | 37406 ft | 461 kts | 133° |
| 2026-04-25 03:55 | -42.32020 | 162.85219 | 37397 ft | 461 kts | 133° |
| 2026-04-25 03:56 | -42.36183 | 162.91741 | 37411 ft | 461 kts | 133° |
| 2026-04-25 03:56 | -42.40383 | 162.98327 | 37409 ft | 462 kts | 133° |
| 2026-04-25 03:57 | -42.44536 | 163.04973 | 37407 ft | 463 kts | 131° |
| 2026-04-25 03:57 | -42.48595 | 163.11746 | 37408 ft | 463 kts | 131° |
| 2026-04-25 03:58 | -42.52638 | 163.18539 | 37409 ft | 463 kts | 131° |
| 2026-04-25 03:58 | -42.56697 | 163.25322 | 37409 ft | 463 kts | 131° |
| 2026-04-25 03:59 | -42.60756 | 163.32088 | 37420 ft | 464 kts | 131° |
| 2026-04-25 03:59 | -42.64830 | 163.38879 | 37411 ft | 464 kts | 131° |
| 2026-04-25 04:00 | -42.68904 | 163.45703 | 37408 ft | 464 kts | 131° |
| 2026-04-25 04:00 | -42.72975 | 163.52527 | 37398 ft | 465 kts | 131° |
| 2026-04-25 04:01 | -42.77035 | 163.59354 | 37396 ft | 465 kts | 131° |
| 2026-04-25 04:01 | -42.81092 | 163.66209 | 37400 ft | 465 kts | 131° |
| 2026-04-25 04:02 | -42.85146 | 163.73075 | 37398 ft | 465 kts | 131° |
| 2026-04-25 04:02 | -42.89201 | 163.79947 | 37402 ft | 465 kts | 131° |
| 2026-04-25 04:03 | -42.93257 | 163.86833 | 37395 ft | 466 kts | 131° |
| 2026-04-25 04:03 | -42.97285 | 163.93688 | 37386 ft | 466 kts | 131° |
| 2026-04-25 04:04 | -43.01333 | 164.00595 | 37393 ft | 466 kts | 131° |
| 2026-04-25 04:04 | -43.05391 | 164.07512 | 37387 ft | 466 kts | 131° |
| 2026-04-25 04:05 | -43.09434 | 164.14458 | 37385 ft | 467 kts | 131° |
| 2026-04-25 04:05 | -43.13465 | 164.21422 | 37391 ft | 467 kts | 131° |
| 2026-04-25 04:06 | -43.17511 | 164.28393 | 37387 ft | 467 kts | 131° |
| 2026-04-25 04:06 | -43.21556 | 164.35367 | 37380 ft | 467 kts | 131° |
| 2026-04-25 04:07 | -43.25603 | 164.42351 | 37384 ft | 468 kts | 131° |
| 2026-04-25 04:07 | -43.29647 | 164.49362 | 37383 ft | 468 kts | 131° |
| 2026-04-25 04:08 | -43.33655 | 164.56332 | 37380 ft | 468 kts | 131° |
| 2026-04-25 04:08 | -43.37691 | 164.63370 | 37368 ft | 468 kts | 131° |
| 2026-04-25 04:09 | -43.41721 | 164.70410 | 37381 ft | 469 kts | 131° |
| 2026-04-25 04:09 | -43.45751 | 164.77477 | 37372 ft | 469 kts | 131° |
| 2026-04-25 04:10 | -43.49754 | 164.84514 | 37365 ft | 469 kts | 131° |
| 2026-04-25 04:10 | -43.53776 | 164.91594 | 37364 ft | 469 kts | 131° |
| 2026-04-25 04:11 | -43.59816 | 165.02243 | 37369 ft | 470 kts | 131° |
| 2026-04-25 04:12 | -43.63830 | 165.09359 | 37377 ft | 470 kts | 131° |
| 2026-04-25 04:12 | -43.67843 | 165.16483 | 37367 ft | 470 kts | 131° |
| 2026-04-25 04:13 | -43.71854 | 165.23620 | 37360 ft | 470 kts | 131° |
| 2026-04-25 04:13 | -43.75857 | 165.30776 | 37357 ft | 470 kts | 131° |
| 2026-04-25 04:14 | -43.79855 | 165.37943 | 37357 ft | 470 kts | 131° |
| 2026-04-25 04:14 | -43.83856 | 165.45111 | 37351 ft | 470 kts | 131° |
| 2026-04-25 04:15 | -43.87833 | 165.52236 | 37351 ft | 470 kts | 131° |
| 2026-04-25 04:15 | -43.91833 | 165.59441 | 37350 ft | 471 kts | 131° |
| 2026-04-25 04:16 | -43.95812 | 165.66648 | 37345 ft | 471 kts | 131° |
| 2026-04-25 04:16 | -43.99794 | 165.73863 | 37346 ft | 471 kts | 131° |
| 2026-04-25 04:17 | -44.03773 | 165.81085 | 37356 ft | 471 kts | 131° |
| 2026-04-25 04:17 | -44.07746 | 165.88317 | 37350 ft | 471 kts | 131° |
| 2026-04-25 04:18 | -44.11715 | 165.95549 | 37348 ft | 471 kts | 131° |
| 2026-04-25 04:18 | -44.15686 | 166.02794 | 37343 ft | 471 kts | 131° |
| 2026-04-25 04:19 | -44.19639 | 166.10018 | 37339 ft | 472 kts | 131° |
| 2026-04-25 04:19 | -44.23612 | 166.17306 | 37348 ft | 472 kts | 131° |
| 2026-04-25 04:20 | -44.27586 | 166.24607 | 37337 ft | 473 kts | 131° |
| 2026-04-25 04:20 | -44.31565 | 166.31926 | 37336 ft | 473 kts | 131° |
| 2026-04-25 04:21 | -44.35536 | 166.39251 | 37332 ft | 473 kts | 131° |
| 2026-04-25 04:21 | -44.39500 | 166.46592 | 37350 ft | 473 kts | 131° |
| 2026-04-25 04:22 | -44.43462 | 166.53956 | 37332 ft | 474 kts | 131° |
| 2026-04-25 04:22 | -44.47405 | 166.61285 | 37325 ft | 475 kts | 131° |
| 2026-04-25 04:23 | -44.51377 | 166.68674 | 37325 ft | 475 kts | 131° |
| 2026-04-25 04:23 | -44.55348 | 166.76095 | 37336 ft | 475 kts | 131° |
| 2026-04-25 04:23 | -44.57324 | 166.79806 | 37158 ft | 476 kts | 131° |
| 2026-04-25 04:24 | -44.59161 | 166.83679 | 36886 ft | 480 kts | 121° |
| 2026-04-25 04:24 | -44.60492 | 166.87987 | 36627 ft | 484 kts | 110° |
| 2026-04-25 04:24 | -44.61243 | 166.92612 | 36366 ft | 487 kts | 98° |
| 2026-04-25 04:24 | -44.61372 | 166.97367 | 36110 ft | 489 kts | 87° |
| 2026-04-25 04:25 | -44.61187 | 167.02141 | 35583 ft | 492 kts | 87° |
| 2026-04-25 04:25 | -44.60999 | 167.06975 | 34749 ft | 497 kts | 87° |
| 2026-04-25 04:25 | -44.60810 | 167.11844 | 33824 ft | 502 kts | 87° |
| 2026-04-25 04:25 | -44.60621 | 167.16699 | 32950 ft | 506 kts | 87° |
| 2026-04-25 04:26 | -44.60435 | 167.21586 | 32466 ft | 499 kts | 87° |
| 2026-04-25 04:26 | -44.60253 | 167.26443 | 31856 ft | 496 kts | 87° |
| 2026-04-25 04:26 | -44.60068 | 167.31241 | 31277 ft | 493 kts | 87° |
| 2026-04-25 04:26 | -44.60018 | 167.36018 | 30714 ft | 488 kts | 94° |
| 2026-04-25 04:27 | -44.60277 | 167.40745 | 30115 ft | 484 kts | 95° |
| 2026-04-25 04:27 | -44.60543 | 167.45436 | 29544 ft | 478 kts | 95° |
| 2026-04-25 04:27 | -44.60806 | 167.50075 | 28991 ft | 472 kts | 95° |
| 2026-04-25 04:27 | -44.61063 | 167.54640 | 28442 ft | 467 kts | 95° |
| 2026-04-25 04:28 | -44.61312 | 167.59158 | 27912 ft | 462 kts | 95° |
| 2026-04-25 04:28 | -44.61552 | 167.63630 | 27376 ft | 457 kts | 95° |
| 2026-04-25 04:28 | -44.61787 | 167.68058 | 26874 ft | 453 kts | 95° |
| 2026-04-25 04:28 | -44.61942 | 167.70960 | 26515 ft | 450 kts | 96° |
| 2026-04-25 04:29 | -44.62175 | 167.75318 | 26017 ft | 445 kts | 96° |
| 2026-04-25 04:29 | -44.62405 | 167.79634 | 25534 ft | 442 kts | 96° |
| 2026-04-25 04:29 | -44.62707 | 167.85306 | 24903 ft | 437 kts | 95° |
| 2026-04-25 04:29 | -44.62930 | 167.89537 | 24440 ft | 432 kts | 96° |
| 2026-04-25 04:30 | -44.63151 | 167.93750 | 23985 ft | 430 kts | 96° |
| 2026-04-25 04:30 | -44.63367 | 167.97921 | 23477 ft | 427 kts | 96° |
| 2026-04-25 04:30 | -44.63580 | 168.02058 | 23029 ft | 422 kts | 96° |
| 2026-04-25 04:30 | -44.63724 | 168.04817 | 22705 ft | 418 kts | 96° |
| 2026-04-25 04:31 | -44.63934 | 168.08866 | 22262 ft | 414 kts | 96° |
| 2026-04-25 04:31 | -44.64139 | 168.12841 | 21795 ft | 410 kts | 96° |
| 2026-04-25 04:31 | -44.64342 | 168.16820 | 21321 ft | 408 kts | 96° |
| 2026-04-25 04:31 | -44.64541 | 168.20769 | 20841 ft | 405 kts | 96° |
| 2026-04-25 04:32 | -44.64740 | 168.24708 | 20364 ft | 402 kts | 96° |
| 2026-04-25 04:32 | -44.64932 | 168.28623 | 19864 ft | 401 kts | 95° |
| 2026-04-25 04:32 | -44.65118 | 168.32503 | 19370 ft | 398 kts | 96° |
| 2026-04-25 04:32 | -44.65329 | 168.36334 | 19207 ft | 386 kts | 100° |
| 2026-04-25 04:33 | -44.65984 | 168.39904 | 19093 ft | 372 kts | 116° |
| 2026-04-25 04:33 | -44.67166 | 168.43050 | 18938 ft | 359 kts | 129° |
| 2026-04-25 04:33 | -44.68756 | 168.45665 | 18521 ft | 346 kts | 143° |
| 2026-04-25 04:33 | -44.70606 | 168.47761 | 17800 ft | 339 kts | 148° |
| 2026-04-25 04:34 | -44.72465 | 168.49778 | 17322 ft | 335 kts | 148° |
| 2026-04-25 04:34 | -44.74292 | 168.51773 | 16868 ft | 332 kts | 147° |
| 2026-04-25 04:34 | -44.76095 | 168.53750 | 16429 ft | 332 kts | 147° |
| 2026-04-25 04:34 | -44.77914 | 168.55746 | 16024 ft | 331 kts | 147° |
| 2026-04-25 04:35 | -44.79829 | 168.57487 | 15587 ft | 325 kts | 157° |
| 2026-04-25 04:35 | -44.81815 | 168.59009 | 15150 ft | 324 kts | 156° |
| 2026-04-25 04:35 | -44.83780 | 168.60530 | 14860 ft | 320 kts | 156° |
| 2026-04-25 04:35 | -44.85712 | 168.62035 | 14277 ft | 316 kts | 156° |
| 2026-04-25 04:36 | -44.87585 | 168.63631 | 13770 ft | 315 kts | 146° |
| 2026-04-25 04:36 | -44.89097 | 168.65887 | 13328 ft | 320 kts | 127° |
| 2026-04-25 04:36 | -44.90062 | 168.68734 | 12806 ft | 325 kts | 108° |
| 2026-04-25 04:36 | -44.90371 | 168.71876 | 12219 ft | 328 kts | 94° |
| 2026-04-25 04:37 | -44.90472 | 168.75093 | 11795 ft | 327 kts | 95° |
| 2026-04-25 04:37 | -44.90577 | 168.78310 | 11376 ft | 327 kts | 95° |
| 2026-04-25 04:37 | -44.90685 | 168.81508 | 11027 ft | 325 kts | 95° |
| 2026-04-25 04:37 | -44.90791 | 168.84676 | 10686 ft | 321 kts | 95° |
| 2026-04-25 04:38 | -44.90892 | 168.87809 | 10052 ft | 319 kts | 95° |
| 2026-04-25 04:38 | -44.90989 | 168.90906 | 9580 ft | 315 kts | 95° |
| 2026-04-25 04:38 | -44.91085 | 168.93968 | 9162 ft | 316 kts | 95° |
| 2026-04-25 04:38 | -44.91185 | 168.97070 | 8741 ft | 317 kts | 95° |
| 2026-04-25 04:39 | -44.91583 | 169.00098 | 8326 ft | 312 kts | 113° |
| 2026-04-25 04:39 | -44.92586 | 169.02763 | 7915 ft | 306 kts | 131° |
| 2026-04-25 04:39 | -44.94051 | 169.04834 | 7514 ft | 290 kts | 148° |
| 2026-04-25 04:39 | -44.95758 | 169.06177 | 7132 ft | 274 kts | 164° |
| 2026-04-25 04:40 | -44.97558 | 169.06823 | 6763 ft | 261 kts | 179° |
| 2026-04-25 04:40 | -44.99321 | 169.06765 | 6398 ft | 247 kts | 195° |
| 2026-04-25 04:40 | -45.00879 | 169.05986 | 6057 ft | 231 kts | 212° |
| 2026-04-25 04:40 | -45.02116 | 169.04667 | 5738 ft | 217 kts | 229° |
| 2026-04-25 04:41 | -45.02981 | 169.03006 | 5450 ft | 205 kts | 244° |
| 2026-04-25 04:41 | -45.03484 | 169.01130 | 5172 ft | 205 kts | 258° |
| 2026-04-25 04:41 | -45.03636 | 168.99133 | 4872 ft | 203 kts | 270° |
| 2026-04-25 04:41 | -45.03469 | 168.97184 | 4578 ft | 196 kts | 281° |
| 2026-04-25 04:42 | -45.03034 | 168.95424 | 4314 ft | 189 kts | 292° |
| 2026-04-25 04:42 | -45.02373 | 168.93818 | 4072 ft | 185 kts | 298° |
| 2026-04-25 04:42 | -45.01698 | 168.92292 | 3792 ft | 178 kts | 300° |
| 2026-04-25 04:42 | -45.01060 | 168.90845 | 3510 ft | 168 kts | 300° |
| 2026-04-25 04:43 | -45.00456 | 168.89471 | 3271 ft | 166 kts | 300° |
| 2026-04-25 04:43 | -45.00002 | 168.88006 | 3042 ft | 161 kts | 283° |
| 2026-04-25 04:43 | -44.99856 | 168.86459 | 2813 ft | 157 kts | 269° |
| 2026-04-25 04:43 | -44.99993 | 168.84956 | 2606 ft | 151 kts | 258° |
| 2026-04-25 04:44 | -45.00193 | 168.83583 | 2379 ft | 139 kts | 259° |
| 2026-04-25 04:44 | -45.00393 | 168.82259 | 2206 ft | 136 kts | 257° |
| 2026-04-25 04:44 | -45.00712 | 168.80998 | 2008 ft | 133 kts | 249° |
| 2026-04-25 04:44 | -45.01039 | 168.79775 | 1849 ft | 135 kts | 256° |
| 2026-04-25 04:45 | -45.01231 | 168.78474 | 1628 ft | 136 kts | 259° |
| 2026-04-25 04:45 | -45.01444 | 168.77188 | 1448 ft | 134 kts | 258° |
| 2026-04-25 04:45 | -45.01633 | 168.75898 | 1250 ft | 132 kts | 258° |
| 2026-04-25 04:45 | -45.01823 | 168.74708 | 1167 ft | 101 kts | 257° |
| 2026-04-25 04:46 | -45.01909 | 168.74157 | 1167 ft | 20 kts | 257° |
| 2026-04-25 04:46 | -45.01951 | 168.74053 | 1166 ft | 10 kts | 209° |
| 2026-04-25 04:46 | -45.02020 | 168.74012 | 1164 ft | 9 kts | 202° |
| 2026-04-25 04:46 | -45.02037 | 168.74003 | 1163 ft | 0 kts | 198° |
| 2026-04-25 04:47 | -45.02041 | 168.74001 | 1164 ft | 0 kts | 198° |
| 2026-04-25 04:47 | -45.02053 | 168.74004 | 1164 ft | 3 kts | 160° |
| 2026-04-25 04:47 | -45.02074 | 168.74033 | 1163 ft | 6 kts | 129° |
| 2026-04-25 04:47 | -45.02097 | 168.74090 | 1164 ft | 8 kts | 120° |
| 2026-04-25 04:48 | -45.02129 | 168.74160 | 1164 ft | 9 kts | 139° |
| 2026-04-25 04:48 | -45.02178 | 168.74188 | 1164 ft | 4 kts | 160° |
| 2026-04-25 04:48 | -45.02207 | 168.74202 | 1163 ft | 4 kts | 166° |
| 2026-04-25 04:48 | -45.02229 | 168.74175 | 1163 ft | 6 kts | 236° |
| 2026-04-25 04:49 | -45.02236 | 168.74143 | 1164 ft | 2 kts | 261° |
| 2026-04-25 04:49 | -45.02238 | 168.74132 | 1164 ft | 0 kts | 254° |